createdAt,value
2018-04-06T00:00:17.337Z,58.90
2018-04-06T00:02:44.413Z,59.60
2018-04-06T00:05:10.670Z,59.60
2018-04-06T00:07:36.984Z,59.30
2018-04-06T00:10:03.283Z,59.30
2018-04-06T00:12:29.566Z,59.60
2018-04-06T00:14:56.550Z,59.80
2018-04-06T00:17:22.967Z,60.10
2018-04-06T00:19:49.282Z,60.30
2018-04-06T00:22:16.241Z,60.60
2018-04-06T00:24:42.547Z,60.60
2018-04-06T00:27:08.800Z,59.90
2018-04-06T00:29:35.093Z,60.00
2018-04-06T00:32:02.088Z,61.30
2018-04-06T00:34:28.335Z,61.30
2018-04-06T00:36:54.580Z,61.70
2018-04-06T00:39:20.890Z,62.10
2018-04-06T00:41:47.209Z,62.50
2018-04-06T00:44:14.219Z,62.60
2018-04-06T00:46:40.496Z,62.60
2018-04-06T00:49:06.750Z,63.00
2018-04-06T00:51:33.800Z,63.40
2018-04-06T00:54:00.118Z,63.30
2018-04-06T00:56:26.440Z,64.10
2018-04-06T00:58:52.710Z,64.20
2018-04-06T01:01:19.624Z,64.70
2018-04-06T01:03:45.867Z,64.70
2018-04-06T01:06:12.159Z,65.00
2018-04-06T01:08:38.391Z,65.00
2018-04-06T01:11:04.724Z,65.20
2018-04-06T01:13:30.972Z,65.40
2018-04-06T01:15:57.298Z,65.70
2018-04-06T01:18:23.644Z,65.70
2018-04-06T01:20:50.243Z,66.00
2018-04-06T01:23:17.398Z,66.30
2018-04-06T01:25:43.712Z,66.30
2018-04-06T01:28:10.013Z,67.00
2018-04-06T01:30:37.009Z,66.40
2018-04-06T01:33:03.611Z,66.40
2018-04-06T01:35:29.906Z,66.80
2018-04-06T01:37:57.450Z,67.80
2018-04-06T01:40:23.718Z,67.50
2018-04-06T01:42:50.014Z,67.70
2018-04-06T01:45:16.290Z,67.70
2018-04-06T01:47:42.607Z,67.60
2018-04-06T01:50:08.928Z,67.50
2018-04-06T01:52:35.941Z,67.80
2018-04-06T01:55:03.055Z,68.10
2018-04-06T01:57:29.441Z,68.10
2018-04-06T01:59:55.785Z,68.90
2018-04-06T02:02:22.120Z,69.60
2018-04-06T02:04:48.414Z,69.80
2018-04-06T02:07:15.390Z,69.70
2018-04-06T02:09:41.832Z,69.70
2018-04-06T02:12:08.194Z,69.90
2018-04-06T02:14:34.533Z,70.20
2018-04-06T02:17:00.772Z,70.50
2018-04-06T02:19:27.018Z,71.00
2018-04-06T02:21:53.324Z,71.10
2018-04-06T02:24:19.589Z,71.70
2018-04-06T02:26:45.884Z,72.10
2018-04-06T02:29:12.229Z,72.30
2018-04-06T02:31:38.593Z,72.80
2018-04-06T02:34:05.724Z,73.10
2018-04-06T02:36:32.052Z,73.10
2018-04-06T02:38:58.374Z,73.20
2018-04-06T02:41:24.698Z,73.00
2018-04-06T02:43:51.727Z,73.40
2018-04-06T02:46:18.018Z,73.30
2018-04-06T02:48:44.344Z,73.30
2018-04-06T02:51:11.432Z,74.20
2018-04-06T02:53:37.688Z,74.20
2018-04-06T02:56:03.989Z,74.20
2018-04-06T02:58:30.959Z,74.30
2018-04-06T03:00:58.196Z,74.30
2018-04-06T03:03:25.278Z,75.30
2018-04-06T03:05:51.559Z,74.50
2018-04-06T03:08:17.816Z,74.50
2018-04-06T03:10:44.045Z,73.40
2018-04-06T03:13:10.287Z,73.80
2018-04-06T03:15:36.556Z,74.00
2018-04-06T03:18:02.814Z,74.80
2018-04-06T03:20:29.852Z,76.00
2018-04-06T03:22:56.106Z,75.20
2018-04-06T03:25:22.374Z,74.40
2018-04-06T03:27:48.651Z,74.20
2018-04-06T03:30:14.900Z,74.50
2018-04-06T03:32:41.259Z,74.90
2018-04-06T03:35:07.555Z,74.90
2018-04-06T03:37:33.790Z,77.40
2018-04-06T03:40:00.010Z,76.30
2018-04-06T03:42:27.079Z,74.10
2018-04-06T03:44:53.397Z,74.10
2018-04-06T03:47:19.738Z,74.30
2018-04-06T03:49:46.771Z,75.70
2018-04-06T03:52:13.057Z,75.70
2018-04-06T03:54:40.064Z,75.20
2018-04-06T03:57:06.311Z,75.20
2018-04-06T03:59:32.561Z,75.30
2018-04-06T04:01:58.851Z,75.50
2018-04-06T04:04:25.908Z,75.60
2018-04-06T04:06:52.947Z,75.80
2018-04-06T04:09:19.153Z,75.70
2018-04-06T04:11:45.436Z,75.80
2018-04-06T04:14:11.731Z,75.80
2018-04-06T04:16:37.985Z,76.10
2018-04-06T04:19:04.321Z,76.40
2018-04-06T04:21:30.617Z,76.70
2018-04-06T04:23:56.864Z,77.00
2018-04-06T04:26:23.917Z,75.80
2018-04-06T04:28:50.941Z,75.90
2018-04-06T04:31:17.202Z,75.90
2018-04-06T04:33:43.447Z,77.50
2018-04-06T04:36:09.732Z,75.50
2018-04-06T04:38:36.058Z,76.70
2018-04-06T04:41:02.383Z,73.10
2018-04-06T04:43:29.396Z,74.30
2018-04-06T04:45:55.667Z,74.30
2018-04-06T04:48:22.008Z,76.10
2018-04-06T04:50:48.372Z,75.20
2018-04-06T04:53:14.611Z,74.00
2018-04-06T04:55:40.847Z,73.90
2018-04-06T04:58:07.131Z,74.00
2018-04-06T05:00:33.367Z,74.60
2018-04-06T05:02:59.621Z,74.60
2018-04-06T05:05:26.697Z,74.70
2018-04-06T05:07:52.966Z,74.70
2018-04-06T05:10:19.334Z,74.80
2018-04-06T05:12:46.362Z,77.00
2018-04-06T05:15:12.661Z,77.00
2018-04-06T05:17:38.953Z,75.40
2018-04-06T05:20:05.266Z,74.80
2018-04-06T05:22:31.516Z,74.50
2018-04-06T05:24:57.857Z,75.50
2018-04-06T05:27:24.140Z,75.60
2018-04-06T05:29:51.214Z,73.50
2018-04-06T05:32:17.552Z,73.40
2018-04-06T05:34:44.558Z,73.70
2018-04-06T05:37:10.983Z,73.60
2018-04-06T05:39:37.341Z,75.00
2018-04-06T05:42:03.707Z,73.60
2018-04-06T05:44:30.047Z,72.90
2018-04-06T05:46:56.481Z,72.90
2018-04-06T05:49:22.795Z,74.40
2018-04-06T05:51:49.113Z,73.20
2018-04-06T05:54:15.389Z,72.30
2018-04-06T05:56:41.656Z,71.70
2018-04-06T05:59:07.969Z,71.80
2018-04-06T06:01:34.228Z,71.80
2018-04-06T06:04:00.573Z,72.20
2018-04-06T06:06:26.896Z,71.70
2018-04-06T06:08:53.276Z,71.20
2018-04-06T06:11:19.574Z,71.40
2018-04-06T06:13:46.547Z,71.90
2018-04-06T06:16:12.921Z,71.80
2018-04-06T06:18:39.272Z,69.60
2018-04-06T06:21:05.571Z,64.90
2018-04-06T06:23:31.915Z,59.60
2018-04-06T06:25:58.317Z,56.30
2018-04-06T06:28:25.412Z,51.90
2018-04-06T06:30:51.779Z,51.50
2018-04-06T06:33:18.104Z,48.70
2018-04-06T06:35:44.362Z,48.10
2018-04-06T06:38:10.649Z,47.20
2018-04-06T06:40:37.044Z,46.80
2018-04-06T06:43:03.514Z,45.10
2018-04-06T06:45:29.961Z,44.40
2018-04-06T06:47:56.293Z,43.80
2018-04-06T06:50:22.653Z,42.50
2018-04-06T06:52:49.028Z,43.30
2018-04-06T06:55:16.032Z,41.70
2018-04-06T06:57:42.379Z,41.70
2018-04-06T07:00:08.707Z,41.20
2018-04-06T07:02:35.126Z,41.50
2018-04-06T07:05:02.266Z,41.40
2018-04-06T07:07:28.518Z,41.40
2018-04-06T07:09:55.620Z,41.20
2018-04-06T07:12:22.036Z,41.10
2018-04-06T07:14:48.512Z,37.80
2018-04-06T07:17:14.762Z,38.90
2018-04-06T07:19:41.787Z,40.10
2018-04-06T07:22:08.969Z,39.50
2018-04-06T07:24:39.740Z,40.80
2018-04-06T07:27:08.542Z,41.90
2018-04-06T07:29:35.758Z,40.30
2018-04-06T07:32:02.979Z,40.50
2018-04-06T07:34:29.458Z,40.40
2018-04-06T07:36:55.897Z,39.00
2018-04-06T07:39:22.988Z,39.20
2018-04-06T07:41:49.419Z,39.20
2018-04-06T07:44:16.643Z,40.40
2018-04-06T07:46:44.159Z,40.40
2018-04-06T07:49:12.067Z,39.00
2018-04-06T07:51:38.494Z,39.00
2018-04-06T07:54:05.912Z,40.30
2018-04-06T07:56:32.273Z,40.50
2018-04-06T07:58:58.520Z,41.70
2018-04-06T08:01:24.840Z,42.40
2018-04-06T08:03:52.290Z,39.40
2018-04-06T08:06:18.615Z,39.60
2018-04-06T08:08:45.001Z,40.30
2018-04-06T08:11:13.008Z,42.00
2018-04-06T08:13:40.036Z,39.00
2018-04-06T08:16:09.376Z,39.00
2018-04-06T08:18:35.669Z,39.00
2018-04-06T08:21:01.998Z,39.90
2018-04-06T08:23:28.357Z,40.10
2018-04-06T08:25:54.659Z,40.10
2018-04-06T08:28:21.806Z,40.00
2018-04-06T08:30:48.073Z,49.10
2018-04-06T08:33:15.170Z,38.90
2018-04-06T08:35:41.536Z,38.80
2018-04-06T08:38:07.876Z,37.10
2018-04-06T08:40:34.142Z,36.80
2018-04-06T08:43:01.222Z,37.00
2018-04-06T08:45:33.954Z,38.10
2018-04-06T08:48:02.556Z,38.10
2018-04-06T08:50:29.666Z,37.90
2018-04-06T08:52:56.135Z,37.90
2018-04-06T08:55:22.621Z,35.60
2018-04-06T08:57:49.794Z,47.60
2018-04-06T09:00:16.063Z,40.10
2018-04-06T09:02:43.141Z,36.80
2018-04-06T09:05:12.433Z,30.10
2018-04-06T09:07:38.847Z,30.10
2018-04-06T09:10:05.452Z,30.00
2018-04-06T09:12:33.738Z,31.20
2018-04-06T09:15:00.797Z,34.30
2018-04-06T09:17:27.363Z,34.20
2018-04-06T09:19:54.443Z,33.10
2018-04-06T09:22:20.761Z,33.10
2018-04-06T09:24:47.028Z,33.20
2018-04-06T09:27:13.320Z,37.10
2018-04-06T09:29:39.638Z,33.70
2018-04-06T09:32:06.005Z,32.70
2018-04-06T09:34:32.376Z,34.30
2018-04-06T09:36:58.665Z,37.00
2018-04-06T09:39:25.027Z,32.90
2018-04-06T09:41:52.059Z,33.50
2018-04-06T09:44:19.152Z,34.00
2018-04-06T09:46:46.180Z,34.30
2018-04-06T09:49:12.518Z,34.30
2018-04-06T09:51:38.740Z,33.70
2018-04-06T09:54:05.082Z,33.10
2018-04-06T09:56:31.371Z,32.90
2018-04-06T09:58:57.681Z,32.00
2018-04-06T10:01:30.143Z,33.40
2018-04-06T10:03:57.164Z,34.10
2018-04-06T10:06:24.234Z,33.80
2018-04-06T10:08:51.590Z,33.70
2018-04-06T10:11:17.947Z,34.10
2018-04-06T10:13:44.964Z,30.70
2018-04-06T10:16:11.222Z,30.70
2018-04-06T10:18:37.541Z,30.90
2018-04-06T10:21:03.847Z,30.80
2018-04-06T10:23:30.913Z,31.70
2018-04-06T10:25:57.948Z,30.30
2018-04-06T10:28:24.375Z,30.30
2018-04-06T10:30:50.737Z,29.50
2018-04-06T10:33:17.176Z,33.40
2018-04-06T10:35:43.478Z,29.90
2018-04-06T10:38:09.779Z,28.60
2018-04-06T10:40:36.048Z,29.00
2018-04-06T10:43:02.342Z,28.70
2018-04-06T10:45:28.632Z,29.40
2018-04-06T10:47:54.940Z,29.90
2018-04-06T10:50:21.402Z,31.80
2018-04-06T10:52:48.459Z,31.30
2018-04-06T10:55:15.511Z,28.70
2018-04-06T10:57:42.587Z,28.50
2018-04-06T11:00:09.793Z,28.70
2018-04-06T11:02:36.959Z,28.70
2018-04-06T11:05:03.292Z,29.90
2018-04-06T11:07:29.683Z,28.00
2018-04-06T11:09:56.072Z,28.60
2018-04-06T11:12:22.443Z,29.00
2018-04-06T11:14:48.700Z,28.40
2018-04-06T11:17:15.819Z,27.00
2018-04-06T11:19:42.273Z,27.00
2018-04-06T11:22:09.856Z,27.40
2018-04-06T11:24:36.947Z,29.50
2018-04-06T11:27:03.302Z,26.20
2018-04-06T11:29:31.013Z,26.20
2018-04-06T11:31:57.434Z,27.00
2018-04-06T11:34:24.475Z,22.40
2018-04-06T11:36:50.808Z,22.30
2018-04-06T11:39:17.144Z,23.60
2018-04-06T11:41:43.434Z,20.70
2018-04-06T11:44:10.547Z,23.50
2018-04-06T11:46:41.149Z,23.50
2018-04-06T11:49:07.499Z,24.80
2018-04-06T11:51:33.825Z,23.50
2018-04-06T11:54:00.900Z,23.70
2018-04-06T11:56:28.574Z,23.60
2018-04-06T11:58:55.121Z,23.40
2018-04-06T12:01:21.432Z,27.20
2018-04-06T12:03:49.889Z,24.40
2018-04-06T12:06:16.215Z,23.00
2018-04-06T12:08:42.501Z,23.40
2018-04-06T12:11:08.810Z,23.20
2018-04-06T12:13:35.132Z,24.10
2018-04-06T12:16:02.090Z,22.70
2018-04-06T12:18:28.338Z,25.10
2018-04-06T12:20:54.670Z,22.50
2018-04-06T12:23:20.968Z,22.20
2018-04-06T12:25:47.367Z,21.70
2018-04-06T12:28:13.662Z,21.50
2018-04-06T12:30:40.080Z,22.50
2018-04-06T12:33:06.583Z,27.50
2018-04-06T12:35:33.637Z,22.40
2018-04-06T12:38:00.639Z,27.30
2018-04-06T12:40:26.921Z,27.20
2018-04-06T12:42:53.282Z,25.20
2018-04-06T12:45:20.319Z,21.90
2018-04-06T12:47:47.360Z,23.30
2018-04-06T12:50:13.592Z,23.30
2018-04-06T12:52:39.876Z,22.10
2018-04-06T12:55:06.153Z,22.40
2018-04-06T12:57:32.427Z,21.70
2018-04-06T12:59:58.803Z,24.00
2018-04-06T13:02:25.227Z,22.50
2018-04-06T13:04:51.512Z,23.60
2018-04-06T13:07:18.628Z,24.70
2018-04-06T13:09:44.851Z,24.70
2018-04-06T13:12:11.203Z,23.70
2018-04-06T13:14:37.930Z,23.30
2018-04-06T13:17:04.349Z,26.30
2018-04-06T13:19:32.524Z,23.60
2018-04-06T13:21:58.914Z,23.60
2018-04-06T13:24:25.242Z,26.20
2018-04-06T13:26:51.506Z,22.60
2018-04-06T13:29:17.774Z,21.80
2018-04-06T13:31:44.039Z,22.00
2018-04-06T13:34:10.349Z,23.40
2018-04-06T13:36:36.620Z,22.80
2018-04-06T13:39:03.714Z,25.40
2018-04-06T13:41:30.029Z,25.40
2018-04-06T13:43:56.328Z,24.60
2018-04-06T13:46:22.787Z,23.50
2018-04-06T13:48:49.153Z,23.20
2018-04-06T13:51:15.539Z,23.50
2018-04-06T13:53:41.916Z,23.20
2018-04-06T13:56:08.275Z,22.30
2018-04-06T13:58:35.510Z,23.20
2018-04-06T14:01:02.062Z,23.20
2018-04-06T14:03:28.280Z,22.50
2018-04-06T14:05:54.574Z,23.20
2018-04-06T14:08:20.937Z,22.80
2018-04-06T14:10:47.278Z,26.00
2018-04-06T14:13:13.587Z,23.50
2018-04-06T14:15:39.964Z,22.90
2018-04-06T14:18:06.320Z,23.50
2018-04-06T14:20:35.455Z,23.00
2018-04-06T14:23:02.405Z,23.00
2018-04-06T14:25:29.659Z,23.60
2018-04-06T14:27:56.799Z,23.30
2018-04-06T14:30:23.218Z,23.20
2018-04-06T14:32:49.526Z,23.30
2018-04-06T14:35:16.642Z,23.70
2018-04-06T14:37:42.971Z,23.70
2018-04-06T14:40:09.405Z,23.80
2018-04-06T14:42:36.198Z,23.20
2018-04-06T14:45:02.659Z,23.40
2018-04-06T14:47:32.224Z,23.30
2018-04-06T14:49:58.633Z,25.60
2018-04-06T14:52:25.767Z,23.20
2018-04-06T14:54:53.938Z,22.90
2018-04-06T14:57:20.352Z,22.70
2018-04-06T14:59:47.539Z,22.90
2018-04-06T15:02:13.834Z,22.90
2018-04-06T15:04:40.174Z,26.50
2018-04-06T15:07:08.102Z,23.20
2018-04-06T15:09:34.483Z,22.30
2018-04-06T15:12:00.953Z,21.80
2018-04-06T15:14:27.354Z,22.70
2018-04-06T15:16:53.832Z,21.60
2018-04-06T15:19:20.109Z,22.40
2018-04-06T15:21:46.390Z,22.30
2018-04-06T15:24:12.698Z,22.80
2018-04-06T15:26:39.759Z,23.40
2018-04-06T15:29:06.104Z,23.30
2018-04-06T15:31:32.439Z,21.80
2018-04-06T15:33:58.841Z,20.00
2018-04-06T15:36:25.191Z,18.60
2018-04-06T15:38:51.567Z,20.90
2018-04-06T15:41:17.822Z,19.10
2018-04-06T15:43:44.983Z,18.30
2018-04-06T15:46:11.272Z,18.10
2018-04-06T15:48:38.212Z,18.90
2018-04-06T15:51:05.176Z,20.80
2018-04-06T15:53:32.218Z,18.90
2018-04-06T15:55:59.232Z,20.20
2018-04-06T15:58:25.660Z,20.20
2018-04-06T16:00:52.014Z,21.30
2018-04-06T16:03:18.311Z,20.40
2018-04-06T16:05:45.357Z,20.10
2018-04-06T16:08:12.367Z,18.70
2018-04-06T16:10:38.651Z,18.70
2018-04-06T16:13:05.062Z,20.60
2018-04-06T16:15:31.312Z,19.40
2018-04-06T16:17:57.599Z,20.90
2018-04-06T16:20:23.932Z,21.30
2018-04-06T16:22:52.157Z,20.60
2018-04-06T16:25:18.407Z,20.90
2018-04-06T16:27:44.664Z,20.70
2018-04-06T16:30:11.048Z,19.80
2018-04-06T16:32:37.959Z,20.80
2018-04-06T16:35:04.780Z,22.60
2018-04-06T16:37:36.984Z,23.30
2018-04-06T16:40:05.673Z,23.20
2018-04-06T16:42:32.144Z,21.90
2018-04-06T16:45:00.601Z,21.10
2018-04-06T16:47:27.256Z,21.50
2018-04-06T16:49:54.472Z,20.70
2018-04-06T16:52:21.253Z,23.00
2018-04-06T16:54:47.741Z,23.00
2018-04-06T16:57:14.103Z,23.10
2018-04-06T16:59:40.933Z,23.80
2018-04-06T17:02:08.324Z,22.90
2018-04-06T17:04:35.963Z,22.90
2018-04-06T17:07:03.825Z,23.30
2018-04-06T17:09:30.197Z,25.30
2018-04-06T17:11:57.468Z,25.20
2018-04-06T17:14:25.198Z,24.40
2018-04-06T17:16:53.323Z,24.70
2018-04-06T17:19:19.832Z,24.60
2018-04-06T17:21:46.789Z,23.90
2018-04-06T17:24:13.940Z,23.10
2018-04-06T17:26:40.907Z,23.10
2018-04-06T17:29:07.487Z,24.60
2018-04-06T17:31:34.629Z,23.60
2018-04-06T17:34:01.184Z,23.60
2018-04-06T17:36:27.792Z,24.20
2018-04-06T17:38:54.562Z,24.50
2018-04-06T17:41:22.418Z,25.20
2018-04-06T17:43:49.128Z,25.20
2018-04-06T17:46:16.259Z,24.70
2018-04-06T17:48:42.570Z,24.70
2018-04-06T17:51:09.570Z,25.10
2018-04-06T17:53:36.697Z,25.00
2018-04-06T17:56:03.132Z,24.80
2018-04-06T17:58:29.505Z,24.90
2018-04-06T18:00:56.005Z,25.00
2018-04-06T18:03:23.596Z,25.20
2018-04-06T18:05:53.748Z,25.50
2018-04-06T18:08:20.296Z,26.00
2018-04-06T18:10:46.674Z,26.50
2018-04-06T18:13:13.058Z,26.90
2018-04-06T18:15:40.172Z,27.10
2018-04-06T18:18:06.554Z,27.60
2018-04-06T18:20:33.623Z,28.50
2018-04-06T18:23:00.005Z,28.50
2018-04-06T18:25:26.515Z,28.90
2018-04-06T18:27:53.964Z,30.00
2018-04-06T18:30:28.004Z,30.30
2018-04-06T18:32:55.504Z,30.90
2018-04-06T18:35:22.037Z,30.30
2018-04-06T18:37:48.517Z,30.30
2018-04-06T18:40:14.878Z,30.80
2018-04-06T18:42:41.182Z,30.90
2018-04-06T18:45:07.610Z,31.10
2018-04-06T18:47:34.702Z,31.10
2018-04-06T18:50:01.096Z,31.60
2018-04-06T18:52:27.496Z,32.60
2018-04-06T18:54:54.667Z,33.30
2018-04-06T18:57:21.773Z,33.80
2018-04-06T18:59:51.474Z,33.80
2018-04-06T19:02:18.060Z,34.00
2018-04-06T19:04:45.263Z,34.90
2018-04-06T19:07:12.975Z,34.90
2018-04-06T19:09:40.897Z,35.40
2018-04-06T19:12:07.244Z,35.70
2018-04-06T19:14:33.622Z,36.40
2018-04-06T19:17:00.164Z,36.60
2018-04-06T19:19:27.036Z,37.20
2018-04-06T19:21:54.369Z,37.00
2018-04-06T19:24:21.256Z,36.70
2018-04-06T19:26:47.714Z,36.80
2018-04-06T19:29:15.168Z,37.00
2018-04-06T19:31:41.617Z,37.90
2018-04-06T19:34:07.942Z,36.80
2018-04-06T19:36:34.373Z,37.30
2018-04-06T19:39:00.928Z,37.20
2018-04-06T19:41:27.240Z,37.30
2018-04-06T19:43:54.571Z,37.40
2018-04-06T19:46:21.660Z,37.30
2018-04-06T19:48:48.174Z,37.50
2018-04-06T19:51:15.242Z,37.50
2018-04-06T19:53:42.416Z,37.80
2018-04-06T19:56:10.039Z,37.70
2018-04-06T19:58:36.456Z,37.60
2018-04-06T20:01:03.594Z,38.20
2018-04-06T20:03:30.051Z,38.30
2018-04-06T20:05:56.793Z,38.20
2018-04-06T20:08:23.764Z,38.50
2018-04-06T20:10:50.374Z,37.50
2018-04-06T20:13:19.582Z,38.30
2018-04-06T20:15:46.024Z,38.20
2018-04-06T20:18:12.464Z,39.30
2018-04-06T20:20:39.562Z,40.10
2018-04-06T20:23:06.093Z,40.70
2018-04-06T20:25:32.455Z,41.50
2018-04-06T20:27:58.928Z,43.10
2018-04-06T20:30:26.243Z,43.80
2018-04-06T20:32:53.672Z,43.70
2018-04-06T20:35:23.618Z,43.40
2018-04-06T20:37:49.979Z,43.30
2018-04-06T20:40:16.686Z,42.80
2018-04-06T20:42:43.889Z,42.30
2018-04-06T20:45:11.842Z,41.90
2018-04-06T20:47:38.171Z,41.90
2018-04-06T20:50:04.548Z,41.20
2018-04-06T20:52:31.775Z,42.30
2018-04-06T20:54:58.174Z,42.20
2018-04-06T20:57:25.178Z,44.80
2018-04-06T20:59:52.891Z,46.80
2018-04-06T21:02:19.279Z,46.90
2018-04-06T21:04:45.633Z,47.90
2018-04-06T21:07:11.963Z,47.50
2018-04-06T21:09:38.290Z,47.90
2018-04-06T21:12:04.679Z,48.50
2018-04-06T21:14:31.467Z,49.10
2018-04-06T21:16:57.827Z,49.10
2018-04-06T21:19:25.402Z,49.70
2018-04-06T21:21:51.949Z,50.00
2018-04-06T21:24:18.517Z,50.30
2018-04-06T21:26:45.797Z,51.00
2018-04-06T21:29:12.585Z,51.20
2018-04-06T21:31:39.687Z,52.00
2018-04-06T21:34:06.125Z,51.90
2018-04-06T21:36:33.221Z,52.90
2018-04-06T21:38:59.861Z,52.30
2018-04-06T21:41:26.491Z,52.70
2018-04-06T21:43:52.911Z,55.00
2018-04-06T21:46:19.414Z,53.30
2018-04-06T21:48:47.273Z,53.80
2018-04-06T21:51:13.795Z,53.90
2018-04-06T21:53:40.190Z,54.10
2018-04-06T21:56:06.764Z,54.50
2018-04-06T21:58:33.927Z,55.40
2018-04-06T22:01:01.197Z,55.90
2018-04-06T22:03:28.453Z,55.90
2018-04-06T22:05:55.641Z,56.20
2018-04-06T22:08:21.982Z,56.20
2018-04-06T22:10:48.267Z,56.10
2018-04-06T22:13:18.304Z,56.50
2018-04-06T22:15:44.610Z,56.80
2018-04-06T22:18:10.866Z,56.90
2018-04-06T22:20:37.210Z,57.00
2018-04-06T22:23:03.909Z,57.20
2018-04-06T22:25:30.903Z,57.30
2018-04-06T22:27:57.182Z,57.30
2018-04-06T22:30:23.490Z,57.50
2018-04-06T22:32:49.751Z,58.20
2018-04-06T22:35:16.073Z,57.90
2018-04-06T22:37:42.394Z,58.10
2018-04-06T22:40:08.635Z,58.20
2018-04-06T22:42:34.912Z,58.20
2018-04-06T22:45:01.177Z,59.50
2018-04-06T22:47:27.674Z,58.80
2018-04-06T22:49:53.968Z,58.70
2018-04-06T22:52:22.673Z,58.80
2018-04-06T22:54:48.900Z,58.90
2018-04-06T22:57:15.226Z,59.40
2018-04-06T22:59:41.494Z,58.80
2018-04-06T23:02:07.749Z,58.90
2018-04-06T23:04:34.037Z,58.90
2018-04-06T23:07:00.294Z,59.60
2018-04-06T23:09:26.565Z,59.50
2018-04-06T23:11:52.931Z,59.60
2018-04-06T23:14:19.969Z,59.70
2018-04-06T23:16:46.344Z,59.60
2018-04-06T23:19:12.744Z,59.40
2018-04-06T23:21:39.008Z,59.40
2018-04-06T23:24:08.515Z,61.20
2018-04-06T23:26:34.864Z,59.60
2018-04-06T23:29:01.198Z,61.30
2018-04-06T23:31:28.833Z,59.40
2018-04-06T23:33:55.180Z,59.30
2018-04-06T23:36:21.900Z,59.60
2018-04-06T23:38:50.058Z,59.10
2018-04-06T23:41:16.307Z,58.80
2018-04-06T23:43:42.766Z,58.80
2018-04-06T23:46:10.844Z,58.30
2018-04-06T23:48:37.083Z,58.20
2018-04-06T23:51:03.499Z,58.40
2018-04-06T23:53:30.144Z,58.40
2018-04-06T23:55:56.389Z,58.70
2018-04-06T23:58:23.341Z,55.20
